createdAt,value
2022-09-12T00:01:36.064Z,101344.31
2022-09-12T00:04:02.989Z,101333.84
2022-09-12T00:06:32.528Z,101334.13
2022-09-12T00:09:04.638Z,101338.72
2022-09-12T00:11:31.327Z,101328.25
2022-09-12T00:14:00.462Z,101324.72
2022-09-12T00:16:30.709Z,101323.88
2022-09-12T00:18:57.711Z,101323.03
2022-09-12T00:21:24.272Z,101320.38
2022-09-12T00:23:51.676Z,101329.06
2022-09-12T00:26:18.826Z,101325.19
2022-09-12T00:28:46.187Z,101319.41
2022-09-12T00:31:15.311Z,101325.19
2022-09-12T00:33:42.272Z,101326.88
2022-09-12T00:36:19.778Z,101326.41
2022-09-12T00:38:47.868Z,101324.91
2022-09-12T00:41:21.082Z,101323.88
2022-09-12T00:43:53.635Z,101325.56
2022-09-12T00:46:26.532Z,101328.44
2022-09-12T00:48:59.794Z,101322.25
2022-09-12T00:51:28.274Z,101325.31
2022-09-12T00:53:55.952Z,101319.91
2022-09-12T00:56:24.251Z,101311.22
2022-09-12T00:58:58.538Z,101318.13
2022-09-12T01:01:28.229Z,101311.06
2022-09-12T01:03:57.082Z,101315.81
2022-09-12T01:06:28.721Z,101317.19
2022-09-12T01:08:56.682Z,101311.09
2022-09-12T01:11:23.640Z,101311.09
2022-09-12T01:13:50.892Z,101307.56
2022-09-12T01:16:17.814Z,101313.66
2022-09-12T01:19:02.951Z,101308.38
2022-09-12T01:22:23.649Z,101309.59
2022-09-12T01:25:15.062Z,101311.81
2022-09-12T01:27:59.723Z,101316.59
2022-09-12T01:30:32.396Z,101317.25
2022-09-12T01:33:36.098Z,101316.88
2022-09-12T01:36:34.575Z,101321.91
2022-09-12T01:39:18.569Z,101316.88
2022-09-12T01:41:59.788Z,101311.66
2022-09-12T01:44:34.826Z,101318.78
2022-09-12T01:47:11.450Z,101314.38
2022-09-12T01:49:58.001Z,101323.66
2022-09-12T01:52:40.169Z,101318.06
2022-09-12T01:55:35.821Z,101330.94
2022-09-12T01:58:12.266Z,101327.41
2022-09-12T02:00:48.170Z,101323.50
2022-09-12T02:03:20.689Z,101327.69
2022-09-12T02:05:52.323Z,101328.06
2022-09-12T02:08:25.054Z,101325.72
2022-09-12T02:11:09.242Z,101331.41
2022-09-12T02:13:43.216Z,101326.00
2022-09-12T02:16:13.957Z,101323.31
2022-09-12T02:18:50.637Z,101320.22
2022-09-12T02:21:20.182Z,101321.63
2022-09-12T02:23:55.519Z,101321.66
2022-09-12T02:27:00.206Z,101315.44
2022-09-12T02:29:27.104Z,101312.06
2022-09-12T02:31:59.661Z,101314.94
2022-09-12T02:34:49.522Z,101308.88
2022-09-12T02:37:27.185Z,101315.28
2022-09-12T02:39:56.054Z,101315.59
2022-09-12T02:42:23.976Z,101312.88
2022-09-12T02:44:53.000Z,101316.28
2022-09-12T02:47:32.460Z,101320.72
2022-09-12T02:50:00.282Z,101314.75
2022-09-12T02:52:28.815Z,101317.97
2022-09-12T02:54:57.333Z,101311.91
2022-09-12T02:57:24.130Z,101312.59
2022-09-12T02:59:55.691Z,101305.31
2022-09-12T03:02:32.312Z,101309.84
2022-09-12T03:05:01.918Z,101311.34
2022-09-12T03:08:01.111Z,101315.00
2022-09-12T03:11:09.972Z,101325.63
2022-09-12T03:14:04.729Z,101318.19
2022-09-12T03:16:56.776Z,101322.41
2022-09-12T03:19:34.233Z,101328.63
2022-09-12T03:22:23.910Z,101330.50
2022-09-12T03:25:15.198Z,101325.13
2022-09-12T03:28:09.743Z,101327.00
2022-09-12T03:30:41.809Z,101324.97
2022-09-12T03:33:12.407Z,101325.81
2022-09-12T03:35:39.211Z,101329.19
2022-09-12T03:38:08.022Z,101314.16
2022-09-12T03:40:35.619Z,101323.78
2022-09-12T03:43:02.542Z,101323.59
2022-09-12T03:45:29.138Z,101325.47
2022-09-12T03:47:55.848Z,101315.47
2022-09-12T03:50:22.707Z,101324.25
2022-09-12T03:52:49.337Z,101321.19
2022-09-12T03:55:15.981Z,101329.81
2022-09-12T03:57:42.567Z,101332.84
2022-09-12T04:00:10.174Z,101325.75
2022-09-12T04:02:37.193Z,101333.31
2022-09-12T04:05:04.478Z,101332.47
2022-09-12T04:07:31.108Z,101335.69
2022-09-12T04:09:57.726Z,101335.03
2022-09-12T04:12:24.314Z,101337.22
2022-09-12T04:14:50.878Z,101335.06
2022-09-12T04:17:17.455Z,101337.97
2022-09-12T04:19:44.102Z,101339.47
2022-09-12T04:22:10.663Z,101344.34
2022-09-12T04:24:37.226Z,101339.25
2022-09-12T04:27:07.696Z,101326.75
2022-09-12T04:29:35.668Z,101333.19
2022-09-12T04:32:03.789Z,101330.66
2022-09-12T04:34:32.508Z,101325.56
2022-09-12T04:36:59.354Z,101332.81
2022-09-12T04:39:25.941Z,101333.00
2022-09-12T04:41:52.516Z,101329.44
2022-09-12T04:44:19.075Z,101330.28
2022-09-12T04:46:47.323Z,101327.75
2022-09-12T04:49:16.460Z,101325.56
2022-09-12T04:51:44.246Z,101333.50
2022-09-12T04:54:17.757Z,101324.94
2022-09-12T04:56:46.850Z,101328.13
2022-09-12T04:59:15.813Z,101330.53
2022-09-12T05:01:42.867Z,101332.75
2022-09-12T05:04:13.594Z,101340.16
2022-09-12T05:06:41.634Z,101333.84
2022-09-12T05:09:11.654Z,101323.72
2022-09-12T05:12:03.342Z,101329.72
2022-09-12T05:14:27.680Z,101331.78
2022-09-12T05:16:56.344Z,101326.34
2022-09-12T05:19:23.557Z,101329.25
2022-09-12T05:21:50.162Z,101332.13
2022-09-12T05:24:16.901Z,101331.03
2022-09-12T05:26:43.892Z,101332.03
2022-09-12T05:29:10.506Z,101341.56
2022-09-12T05:31:37.698Z,101335.19
2022-09-12T05:34:08.327Z,101343.63
2022-09-12T05:36:35.072Z,101338.41
2022-09-12T05:39:01.985Z,101346.69
2022-09-12T05:41:33.920Z,101336.88
2022-09-12T05:44:03.672Z,101345.50
2022-09-12T05:46:38.736Z,101350.09
2022-09-12T05:49:07.030Z,101347.81
2022-09-12T05:51:36.389Z,101353.22
2022-09-12T05:54:04.482Z,101352.19
2022-09-12T05:56:34.330Z,101350.75
2022-09-12T05:59:03.740Z,101361.94
2022-09-12T06:01:31.871Z,101362.22
2022-09-12T06:04:00.942Z,101364.88
2022-09-12T06:06:29.087Z,101372.91
2022-09-12T06:09:04.094Z,101369.06
2022-09-12T06:11:33.325Z,101372.13
2022-09-12T06:14:00.477Z,101376.19
2022-09-12T06:16:29.627Z,101377.22
2022-09-12T06:18:59.396Z,101376.00
2022-09-12T06:21:27.269Z,101379.94
2022-09-12T06:23:55.295Z,101381.41
2022-09-12T06:26:23.560Z,101380.91
2022-09-12T06:28:50.785Z,101374.34
2022-09-12T06:31:20.649Z,101378.41
2022-09-12T06:33:49.444Z,101387.19
2022-09-12T06:36:18.713Z,101382.44
2022-09-12T06:38:51.694Z,101383.13
2022-09-12T06:41:18.336Z,101373.16
2022-09-12T06:43:44.934Z,101387.00
2022-09-12T06:46:13.219Z,101386.53
2022-09-12T06:48:42.164Z,101385.84
2022-09-12T06:51:14.822Z,101388.88
2022-09-12T06:53:42.394Z,101386.50
2022-09-12T06:56:20.251Z,101386.72
2022-09-12T06:58:48.777Z,101392.50
2022-09-12T07:01:27.004Z,101399.69
2022-09-12T07:04:01.117Z,101395.28
2022-09-12T07:06:36.643Z,101392.09
2022-09-12T07:09:05.926Z,101396.47
2022-09-12T07:11:35.521Z,101395.63
2022-09-12T07:14:04.213Z,101399.00
2022-09-12T07:16:31.211Z,101391.91
2022-09-12T07:19:01.041Z,101392.56
2022-09-12T07:21:28.731Z,101396.97
2022-09-12T07:23:57.814Z,101407.78
2022-09-12T07:26:26.934Z,101402.41
2022-09-12T07:28:54.717Z,101395.09
2022-09-12T07:31:23.866Z,101395.75
2022-09-12T07:33:54.440Z,101396.13
2022-09-12T07:36:23.992Z,101398.91
2022-09-12T07:38:57.805Z,101402.78
2022-09-12T07:41:29.632Z,101394.94
2022-09-12T07:43:58.329Z,101401.31
2022-09-12T07:46:26.556Z,101397.81
2022-09-12T07:48:55.033Z,101398.53
2022-09-12T07:51:22.766Z,101404.94
2022-09-12T07:53:49.985Z,101399.31
2022-09-12T07:56:16.978Z,101408.63
2022-09-12T07:58:44.484Z,101407.13
2022-09-12T08:01:17.182Z,101408.78
2022-09-12T08:03:47.619Z,101408.19
2022-09-12T08:06:15.694Z,101398.06
2022-09-12T08:08:43.287Z,101410.13
2022-09-12T08:11:12.463Z,101408.44
2022-09-12T08:13:41.005Z,101412.81
2022-09-12T08:16:12.036Z,101411.06
2022-09-12T08:18:39.258Z,101405.59
2022-09-12T08:21:09.699Z,101406.00
2022-09-12T08:23:36.329Z,101406.44
2022-09-12T08:26:06.351Z,101407.59
2022-09-12T08:28:34.734Z,101409.09
2022-09-12T08:31:06.553Z,101407.06
2022-09-12T08:33:33.821Z,101405.06
2022-09-12T08:36:07.765Z,101401.97
2022-09-12T08:38:35.642Z,101403.25
2022-09-12T08:41:09.409Z,101407.28
2022-09-12T08:43:38.889Z,101408.47
2022-09-12T08:46:32.377Z,101403.63
2022-09-12T08:49:01.738Z,101405.28
2022-09-12T08:51:29.575Z,101410.50
2022-09-12T08:53:57.449Z,101408.44
2022-09-12T08:56:31.440Z,101410.50
2022-09-12T08:58:58.535Z,101396.22
2022-09-12T09:01:35.772Z,101407.25
2022-09-12T09:04:45.238Z,101400.53
2022-09-12T09:07:28.895Z,101397.69
2022-09-12T09:10:22.765Z,101400.97
2022-09-12T09:13:49.551Z,101399.13
2022-09-12T09:16:27.965Z,101393.94
2022-09-12T09:18:57.726Z,101392.41
2022-09-12T09:21:37.322Z,101397.47
2022-09-12T09:24:16.776Z,101403.22
2022-09-12T09:26:53.206Z,101396.13
2022-09-12T09:29:22.683Z,101399.44
2022-09-12T09:31:53.370Z,101397.31
2022-09-12T09:34:39.885Z,101389.94
2022-09-12T09:37:26.608Z,101394.88
2022-09-12T09:40:11.393Z,101384.72
2022-09-12T09:43:19.719Z,101380.38
2022-09-12T09:45:47.907Z,101377.81
2022-09-12T09:48:22.502Z,101374.22
2022-09-12T09:50:50.185Z,101372.69
2022-09-12T09:53:47.879Z,101376.13
2022-09-12T09:56:27.790Z,101374.59
2022-09-12T09:58:54.902Z,101373.91
2022-09-12T10:01:21.649Z,101374.91
2022-09-12T10:03:56.104Z,101371.69
2022-09-12T10:06:25.394Z,101374.94
2022-09-12T10:09:15.773Z,101366.81
2022-09-12T10:11:45.806Z,101366.97
2022-09-12T10:14:27.708Z,101369.22
2022-09-12T10:16:54.277Z,101381.91
2022-09-12T10:19:26.247Z,101372.47
2022-09-12T10:21:55.903Z,101367.06
2022-09-12T10:24:40.576Z,101374.59
2022-09-12T10:27:11.914Z,101371.94
2022-09-12T10:29:45.782Z,101376.53
2022-09-12T10:32:16.046Z,101358.81
2022-09-12T10:34:45.099Z,101358.69
2022-09-12T10:37:24.781Z,101368.13
2022-09-12T10:39:57.205Z,101362.06
2022-09-12T10:42:45.075Z,101353.59
2022-09-12T10:45:37.641Z,101354.53
2022-09-12T10:48:31.682Z,101361.97
2022-09-12T10:51:00.089Z,101355.28
2022-09-12T10:53:34.177Z,101345.88
2022-09-12T10:56:14.331Z,101346.94
2022-09-12T10:58:48.805Z,101350.41
2022-09-12T11:01:56.606Z,101344.47
2022-09-12T11:04:47.532Z,101339.84
2022-09-12T11:07:25.823Z,101333.63
2022-09-12T11:10:21.236Z,101337.44
2022-09-12T11:13:12.803Z,101333.81
2022-09-12T11:16:10.216Z,101335.06
2022-09-12T11:19:10.001Z,101335.66
2022-09-12T11:22:08.874Z,101331.66
2022-09-12T11:25:05.142Z,101335.88
2022-09-12T11:27:31.634Z,101334.56
2022-09-12T11:29:59.727Z,101330.50
2022-09-12T11:32:44.690Z,101332.72
2022-09-12T11:35:20.327Z,101328.31
2022-09-12T11:37:52.899Z,101330.22
2022-09-12T11:40:20.537Z,101331.03
2022-09-12T11:42:50.233Z,101324.16
2022-09-12T11:45:27.031Z,101321.28
2022-09-12T11:47:58.358Z,101323.28
2022-09-12T11:50:28.586Z,101323.06
2022-09-12T11:53:16.356Z,101318.16
2022-09-12T11:56:15.605Z,101324.59
2022-09-12T11:58:46.497Z,101324.03
2022-09-12T12:01:18.985Z,101323.91
2022-09-12T12:03:47.199Z,101322.06
2022-09-12T12:06:21.636Z,101321.06
2022-09-12T12:08:50.672Z,101316.66
2022-09-12T12:11:34.581Z,101312.34
2022-09-12T12:14:07.186Z,101318.88
2022-09-12T12:16:37.865Z,101305.53
2022-09-12T12:19:16.053Z,101303.81
2022-09-12T12:21:48.297Z,101298.06
2022-09-12T12:24:26.479Z,101298.28
2022-09-12T12:27:22.675Z,101294.22
2022-09-12T12:29:49.294Z,101288.91
2022-09-12T12:32:21.091Z,101288.22
2022-09-12T12:34:47.962Z,101286.41
2022-09-12T12:37:20.883Z,101290.91
2022-09-12T12:39:51.042Z,101293.53
2022-09-12T12:42:35.773Z,101295.50
2022-09-12T12:45:23.730Z,101285.69
2022-09-12T12:47:53.600Z,101279.28
2022-09-12T12:50:20.135Z,101282.69
2022-09-12T12:53:16.977Z,101282.44
2022-09-12T12:55:43.517Z,101288.31
2022-09-12T12:58:29.875Z,101276.63
2022-09-12T13:01:13.418Z,101284.06
2022-09-12T13:03:46.284Z,101275.19
2022-09-12T13:06:32.985Z,101279.81
2022-09-12T13:09:06.629Z,101276.63
2022-09-12T13:11:38.597Z,101272.00
2022-09-12T13:14:09.495Z,101273.66
2022-09-12T13:16:52.204Z,101272.75
2022-09-12T13:19:45.956Z,101269.41
2022-09-12T13:22:13.023Z,101266.09
2022-09-12T13:24:44.749Z,101266.09
2022-09-12T13:27:23.594Z,101261.78
2022-09-12T13:29:50.501Z,101262.53
2022-09-12T13:32:18.369Z,101258.97
2022-09-12T13:35:13.003Z,101257.06
2022-09-12T13:37:54.678Z,101258.13
2022-09-12T13:40:32.388Z,101265.28
2022-09-12T13:43:15.196Z,101254.78
2022-09-12T13:45:44.089Z,101253.13
2022-09-12T13:48:16.927Z,101247.28
2022-09-12T13:50:52.404Z,101243.59
2022-09-12T13:53:23.833Z,101247.47
2022-09-12T13:55:55.826Z,101251.59
2022-09-12T13:58:35.117Z,101252.22
2022-09-12T14:01:13.874Z,101239.34
2022-09-12T14:04:08.897Z,101246.31
2022-09-12T14:06:49.627Z,101248.03
2022-09-12T14:09:26.051Z,101235.03
2022-09-12T14:11:53.712Z,101235.31
2022-09-12T14:14:34.329Z,101244.72
2022-09-12T14:17:01.109Z,101235.31
2022-09-12T14:19:29.237Z,101232.59
2022-09-12T14:21:57.600Z,101231.13
2022-09-12T14:24:24.704Z,101233.66
2022-09-12T14:26:56.660Z,101232.44
2022-09-12T14:29:25.338Z,101237.50
2022-09-12T14:32:03.649Z,101239.59
2022-09-12T14:34:30.940Z,101227.44
2022-09-12T14:36:58.748Z,101226.41
2022-09-12T14:39:44.023Z,101225.78
2022-09-12T14:42:18.812Z,101227.44
2022-09-12T14:45:17.094Z,101218.81
2022-09-12T14:47:50.544Z,101221.53
2022-09-12T14:50:23.384Z,101224.25
2022-09-12T14:53:24.865Z,101218.38
2022-09-12T14:56:06.863Z,101218.59
2022-09-12T14:58:33.713Z,101217.53
2022-09-12T15:01:07.357Z,101215.44
2022-09-12T15:03:35.897Z,101215.88
2022-09-12T15:06:04.866Z,101207.06
2022-09-12T15:08:32.160Z,101201.84
2022-09-12T15:10:59.492Z,101203.31
2022-09-12T15:13:28.489Z,101203.31
2022-09-12T15:15:57.022Z,101200.34
2022-09-12T15:18:26.548Z,101206.22
2022-09-12T15:21:01.738Z,101209.13
2022-09-12T15:23:38.253Z,101207.88
2022-09-12T15:26:05.799Z,101202.81
2022-09-12T15:28:33.642Z,101208.66
2022-09-12T15:31:28.506Z,101206.53
2022-09-12T15:33:56.980Z,101199.00
2022-09-12T15:36:24.869Z,101207.59
2022-09-12T15:38:52.741Z,101199.59
2022-09-12T15:41:21.142Z,101205.25
2022-09-12T15:43:48.528Z,101204.00
2022-09-12T15:46:17.080Z,101206.91
2022-09-12T15:48:43.908Z,101208.63
2022-09-12T15:51:20.935Z,101207.75
2022-09-12T15:53:48.816Z,101208.84
2022-09-12T15:56:20.439Z,101204.47
2022-09-12T15:58:58.245Z,101205.94
2022-09-12T16:01:27.069Z,101201.69
2022-09-12T16:03:53.719Z,101202.50
2022-09-12T16:06:20.368Z,101197.03
2022-09-12T16:08:47.052Z,101192.19
2022-09-12T16:11:27.266Z,101196.72
2022-09-12T16:13:55.023Z,101187.75
2022-09-12T16:16:22.071Z,101192.53
2022-09-12T16:18:48.974Z,101188.34
2022-09-12T16:21:16.116Z,101182.44
2022-09-12T16:23:43.939Z,101182.72
2022-09-12T16:26:10.881Z,101181.22
2022-09-12T16:28:37.771Z,101177.63
2022-09-12T16:31:06.468Z,101174.91
2022-09-12T16:33:33.628Z,101177.50
2022-09-12T16:36:03.886Z,101177.84
2022-09-12T16:38:31.376Z,101170.81
2022-09-12T16:41:06.590Z,101167.47
2022-09-12T16:43:34.781Z,101169.69
2022-09-12T16:46:16.096Z,101168.22
2022-09-12T16:48:54.438Z,101162.78
2022-09-12T16:51:24.131Z,101160.06
2022-09-12T16:53:51.181Z,101155.25
2022-09-12T16:56:18.541Z,101156.91
2022-09-12T16:58:45.606Z,101155.88
2022-09-12T17:01:15.407Z,101149.81
2022-09-12T17:03:42.658Z,101147.69
2022-09-12T17:06:15.058Z,101144.75
2022-09-12T17:08:43.946Z,101148.94
2022-09-12T17:11:14.108Z,101141.41
2022-09-12T17:14:03.244Z,101134.28
2022-09-12T17:16:28.794Z,101134.09
2022-09-12T17:18:55.847Z,101140.56
2022-09-12T17:21:22.901Z,101138.22
2022-09-12T17:23:49.842Z,101135.69
2022-09-12T17:26:16.869Z,101136.06
2022-09-12T17:28:43.991Z,101141.47
2022-09-12T17:31:13.207Z,101139.31
2022-09-12T17:33:40.930Z,101140.38
2022-09-12T17:36:11.186Z,101134.88
2022-09-12T17:38:39.782Z,101141.13
2022-09-12T17:41:15.053Z,101134.03
2022-09-12T17:43:42.141Z,101127.78
2022-09-12T17:46:08.917Z,101130.25
2022-09-12T17:48:35.998Z,101126.13
2022-09-12T17:51:14.515Z,101132.59
2022-09-12T17:53:42.170Z,101125.38
2022-09-12T17:56:10.504Z,101128.13
2022-09-12T17:58:37.666Z,101123.09
2022-09-12T18:01:30.882Z,101124.97
2022-09-12T18:04:00.597Z,101129.50
2022-09-12T18:06:28.936Z,101127.81
2022-09-12T18:08:55.758Z,101134.56
2022-09-12T18:11:22.357Z,101141.88
2022-09-12T18:13:49.270Z,101131.16
2022-09-12T18:16:16.437Z,101127.78
2022-09-12T18:18:43.089Z,101138.63
2022-09-12T18:21:11.583Z,101135.34
2022-09-12T18:23:38.533Z,101133.03
2022-09-12T18:26:07.814Z,101138.44
2022-09-12T18:28:40.803Z,101135.84
2022-09-12T18:31:21.742Z,101137.69
2022-09-12T18:33:49.078Z,101136.16
2022-09-12T18:36:17.120Z,101137.13
2022-09-12T18:38:44.594Z,101138.25
2022-09-12T18:41:13.664Z,101138.44
2022-09-12T18:43:40.499Z,101138.44
2022-09-12T18:46:10.233Z,101142.34
2022-09-12T18:48:37.258Z,101141.06
2022-09-12T18:51:16.385Z,101140.22
2022-09-12T18:53:43.132Z,101139.09
2022-09-12T18:56:14.101Z,101139.69
2022-09-12T18:58:42.718Z,101141.75
2022-09-12T19:01:17.029Z,101142.75
2022-09-12T19:03:44.543Z,101134.50
2022-09-12T19:06:12.517Z,101131.88
2022-09-12T19:08:39.620Z,101136.59
2022-09-12T19:11:07.814Z,101131.41
2022-09-12T19:13:39.342Z,101137.06
2022-09-12T19:16:10.791Z,101138.22
2022-09-12T19:18:39.185Z,101132.53
2022-09-12T19:21:13.773Z,101134.03
2022-09-12T19:23:40.384Z,101123.38
2022-09-12T19:26:09.096Z,101120.88
2022-09-12T19:28:35.928Z,101121.72
2022-09-12T19:31:10.431Z,101116.72
2022-09-12T19:33:38.019Z,101118.41
2022-09-12T19:36:21.941Z,101112.44
2022-09-12T19:38:54.677Z,101110.75
2022-09-12T19:41:21.547Z,101115.06
2022-09-12T19:43:48.129Z,101106.94
2022-09-12T19:46:19.624Z,101117.75
2022-09-12T19:48:47.454Z,101112.34
2022-09-12T19:51:14.816Z,101107.78
2022-09-12T19:53:42.312Z,101107.78
2022-09-12T19:56:11.836Z,101100.28
2022-09-12T19:58:43.545Z,101104.03
2022-09-12T20:01:16.065Z,101106.09
2022-09-12T20:03:43.592Z,101094.81
2022-09-12T20:06:16.301Z,101098.59
2022-09-12T20:08:44.040Z,101090.59
2022-09-12T20:11:23.153Z,101090.97
2022-09-12T20:13:50.116Z,101090.97
2022-09-12T20:16:29.494Z,101092.00
2022-09-12T20:19:01.782Z,101088.66
2022-09-12T20:21:31.984Z,101086.69
2022-09-12T20:24:11.561Z,101083.47
2022-09-12T20:26:38.386Z,101076.88
2022-09-12T20:29:05.947Z,101088.47
2022-09-12T20:31:34.927Z,101082.22
2022-09-12T20:34:01.681Z,101079.59
2022-09-12T20:36:29.177Z,101078.03
2022-09-12T20:38:59.854Z,101076.69
2022-09-12T20:41:28.987Z,101069.69
2022-09-12T20:43:56.776Z,101075.41
2022-09-12T20:46:25.381Z,101069.16
2022-09-12T20:48:52.739Z,101067.88
2022-09-12T20:51:20.711Z,101071.88
2022-09-12T20:53:47.842Z,101063.25
2022-09-12T20:56:15.103Z,101065.06
2022-09-12T20:58:44.008Z,101061.88
2022-09-12T21:01:12.631Z,101061.69
2022-09-12T21:03:40.288Z,101061.63
2022-09-12T21:06:08.217Z,101054.53
2022-09-12T21:08:35.806Z,101066.56
2022-09-12T21:11:03.007Z,101057.84
2022-09-12T21:13:29.701Z,101064.59
2022-09-12T21:16:00.919Z,101058.88
2022-09-12T21:18:28.091Z,101054.50
2022-09-12T21:20:55.954Z,101061.31
2022-09-12T21:23:24.247Z,101057.00
2022-09-12T21:25:52.644Z,101051.25
2022-09-12T21:28:20.192Z,101053.66
2022-09-12T21:30:50.811Z,101055.72
2022-09-12T21:33:19.145Z,101056.94
2022-09-12T21:35:47.321Z,101055.91
2022-09-12T21:38:18.431Z,101049.09
2022-09-12T21:40:46.197Z,101043.97
2022-09-12T21:43:13.304Z,101049.56
2022-09-12T21:45:40.650Z,101057.22
2022-09-12T21:48:07.623Z,101048.28
2022-09-12T21:50:34.221Z,101049.94
2022-09-12T21:53:00.785Z,101042.38
2022-09-12T21:55:27.521Z,101039.03
2022-09-12T21:57:54.913Z,101040.00
2022-09-12T22:00:22.525Z,101040.66
2022-09-12T22:02:49.229Z,101037.78
2022-09-12T22:05:16.778Z,101040.69
2022-09-12T22:07:43.371Z,101031.75
2022-09-12T22:10:10.430Z,101027.16
2022-09-12T22:12:37.003Z,101022.84
2022-09-12T22:15:23.084Z,101029.38
2022-09-12T22:17:50.523Z,101022.88
2022-09-12T22:20:17.161Z,101007.06
2022-09-12T22:23:02.302Z,101015.31
2022-09-12T22:25:29.194Z,101010.34
2022-09-12T22:27:55.897Z,101018.28
2022-09-12T22:30:23.506Z,101011.31
2022-09-12T22:32:51.097Z,101005.91
2022-09-12T22:35:18.528Z,101014.28
2022-09-12T22:37:47.759Z,101002.88
2022-09-12T22:40:15.593Z,100994.03
2022-09-12T22:42:42.651Z,100997.78
2022-09-12T22:45:09.838Z,100995.53
2022-09-12T22:47:36.450Z,100992.53
2022-09-12T22:50:03.230Z,100985.28
2022-09-12T22:52:29.799Z,100986.41
2022-09-12T22:54:57.233Z,100978.34
2022-09-12T22:57:23.814Z,100969.41
2022-09-12T22:59:50.409Z,100972.09
2022-09-12T23:02:17.035Z,100962.41
2022-09-12T23:04:43.895Z,100971.75
2022-09-12T23:07:10.720Z,100964.75
2022-09-12T23:09:37.305Z,100958.13
2022-09-12T23:12:04.483Z,100970.91
2022-09-12T23:14:31.176Z,100955.31
2022-09-12T23:16:57.788Z,100950.75
2022-09-12T23:19:24.398Z,100956.00
2022-09-12T23:21:51.094Z,100952.50
2022-09-12T23:24:17.955Z,100950.44
2022-09-12T23:26:44.634Z,100947.41
2022-09-12T23:29:11.442Z,100951.91
2022-09-12T23:31:38.174Z,100928.41
2022-09-12T23:34:06.086Z,100932.38
2022-09-12T23:36:33.645Z,100934.16
2022-09-12T23:39:00.373Z,100936.19
2022-09-12T23:41:27.185Z,100936.38
2022-09-12T23:43:53.856Z,100938.44
2022-09-12T23:46:20.873Z,100931.31
2022-09-12T23:48:48.236Z,100924.38
2022-09-12T23:51:15.228Z,100920.13
2022-09-12T23:53:42.285Z,100920.88
2022-09-12T23:56:09.186Z,100912.00
2022-09-12T23:58:36.288Z,100917.59
